createdAt,value
2022-10-04T00:00:38.940Z,0.75
2022-10-04T00:03:38.006Z,0.90
2022-10-04T00:06:12.645Z,1.00
2022-10-04T00:08:52.396Z,1.30
2022-10-04T00:11:43.492Z,1.02
2022-10-04T00:14:25.045Z,1.00
2022-10-04T00:16:53.390Z,1.02
2022-10-04T00:19:20.277Z,0.80
2022-10-04T00:21:58.698Z,1.05
2022-10-04T00:24:28.823Z,1.02
2022-10-04T00:27:22.221Z,0.82
2022-10-04T00:30:01.712Z,1.00
2022-10-04T00:32:39.621Z,1.10
2022-10-04T00:35:33.279Z,0.70
2022-10-04T00:38:15.833Z,1.30
2022-10-04T00:40:49.389Z,1.80
2022-10-04T00:43:32.339Z,1.10
2022-10-04T00:46:07.798Z,1.30
2022-10-04T00:48:45.083Z,1.10
2022-10-04T00:51:35.552Z,1.30
2022-10-04T00:54:24.418Z,1.25
2022-10-04T00:56:56.234Z,1.23
2022-10-04T00:59:41.192Z,1.20
2022-10-04T01:02:17.406Z,1.20
2022-10-04T01:05:06.833Z,1.38
2022-10-04T01:07:40.624Z,0.95
2022-10-04T01:10:14.510Z,1.20
2022-10-04T01:12:57.191Z,1.33
2022-10-04T01:15:45.557Z,1.17
2022-10-04T01:18:18.955Z,1.30
2022-10-04T01:21:01.339Z,1.10
2022-10-04T01:23:49.578Z,1.25
2022-10-04T01:26:36.665Z,0.95
2022-10-04T01:29:06.949Z,1.23
2022-10-04T01:31:37.118Z,1.33
2022-10-04T01:34:06.082Z,1.02
2022-10-04T01:36:37.164Z,1.20
2022-10-04T01:39:07.067Z,1.00
2022-10-04T01:41:44.962Z,1.00
2022-10-04T01:44:25.024Z,1.10
2022-10-04T01:46:55.934Z,1.08
2022-10-04T01:49:29.289Z,1.38
2022-10-04T01:52:20.417Z,1.20
2022-10-04T01:55:03.850Z,1.45
2022-10-04T01:57:37.743Z,0.88
2022-10-04T02:00:08.995Z,1.25
2022-10-04T02:02:40.781Z,1.10
2022-10-04T02:05:12.892Z,1.00
2022-10-04T02:07:41.502Z,0.90
2022-10-04T02:10:22.055Z,0.80
2022-10-04T02:12:54.767Z,1.20
2022-10-04T02:15:26.863Z,1.25
2022-10-04T02:17:57.234Z,1.00
2022-10-04T02:20:27.309Z,1.10
2022-10-04T02:23:03.115Z,1.30
2022-10-04T02:25:31.327Z,1.23
2022-10-04T02:27:58.685Z,1.10
2022-10-04T02:30:25.804Z,1.30
2022-10-04T02:33:02.661Z,1.40
2022-10-04T02:35:44.382Z,1.50
2022-10-04T02:38:22.995Z,1.30
2022-10-04T02:40:57.744Z,1.02
2022-10-04T02:43:36.270Z,1.40
2022-10-04T02:46:29.550Z,1.17
2022-10-04T02:48:59.600Z,1.33
2022-10-04T02:51:54.096Z,1.08
2022-10-04T02:56:56.930Z,1.23
2022-10-04T02:59:24.733Z,1.38
2022-10-04T03:02:00.121Z,1.20
2022-10-04T03:04:33.822Z,1.40
2022-10-04T03:07:07.142Z,1.08
2022-10-04T03:09:37.449Z,1.50
2022-10-04T03:12:05.946Z,1.45
2022-10-04T03:14:34.259Z,1.40
2022-10-04T03:17:04.393Z,1.27
2022-10-04T03:19:34.974Z,1.42
2022-10-04T03:22:14.902Z,1.40
2022-10-04T03:24:51.962Z,1.65
2022-10-04T03:27:28.553Z,1.60
2022-10-04T03:29:59.204Z,1.95
2022-10-04T03:32:30.601Z,1.52
2022-10-04T03:35:01.136Z,1.90
2022-10-04T03:37:33.029Z,2.08
2022-10-04T03:40:02.997Z,1.90
2022-10-04T03:42:34.870Z,1.73
2022-10-04T03:45:11.709Z,1.80
2022-10-04T03:47:43.511Z,2.28
2022-10-04T03:50:20.344Z,2.13
2022-10-04T03:53:43.725Z,2.20
2022-10-04T03:56:35.836Z,1.80
2022-10-04T03:59:05.727Z,2.20
2022-10-04T04:02:24.438Z,2.30
2022-10-04T04:05:13.219Z,2.17
2022-10-04T04:07:46.152Z,2.38
2022-10-04T04:10:23.274Z,2.50
2022-10-04T04:12:56.325Z,2.90
2022-10-04T04:15:28.136Z,2.50
2022-10-04T04:17:55.764Z,2.80
2022-10-04T04:20:28.782Z,2.60
2022-10-04T04:29:46.706Z,2.30
2022-10-04T04:32:32.711Z,2.90
2022-10-04T04:35:21.236Z,2.97
2022-10-04T04:38:22.209Z,4.13
2022-10-04T04:40:51.174Z,4.50
2022-10-04T04:43:20.148Z,5.57
2022-10-04T04:48:48.689Z,5.88
2022-10-04T04:51:22.171Z,9.43
2022-10-04T04:53:51.056Z,7.85
2022-10-04T04:56:23.493Z,5.72
2022-10-04T04:58:53.117Z,6.28
2022-10-04T05:01:34.392Z,3.78
2022-10-04T05:04:06.714Z,4.13
2022-10-04T05:06:36.174Z,2.80
2022-10-04T05:09:06.132Z,3.33
2022-10-04T05:11:36.453Z,3.03
2022-10-04T05:14:10.658Z,3.58
2022-10-04T05:16:51.696Z,3.55
2022-10-04T05:19:33.265Z,3.40
2022-10-04T05:22:07.118Z,3.40
2022-10-04T05:24:43.606Z,3.13
2022-10-04T05:27:33.185Z,3.05
2022-10-04T05:30:04.644Z,3.22
2022-10-04T05:35:49.483Z,2.95
2022-10-04T05:38:28.154Z,2.63
2022-10-04T05:41:16.377Z,2.33
2022-10-04T05:43:52.671Z,2.15
2022-10-04T05:46:29.058Z,1.95
2022-10-04T05:49:01.171Z,2.08
2022-10-04T05:51:34.182Z,2.65
2022-10-04T05:54:03.036Z,2.25
2022-10-04T05:56:35.992Z,1.77
2022-10-04T05:59:20.983Z,2.10
2022-10-04T06:02:20.372Z,1.90
2022-10-04T06:05:16.403Z,2.00
2022-10-04T06:08:08.381Z,1.95
2022-10-04T06:10:52.055Z,1.73
2022-10-04T06:13:40.532Z,2.03
2022-10-04T06:16:40.592Z,2.55
2022-10-04T06:19:13.645Z,2.25
2022-10-04T06:21:50.378Z,2.25
2022-10-04T06:24:27.766Z,2.05
2022-10-04T06:27:11.222Z,1.67
2022-10-04T06:29:43.786Z,2.35
2022-10-04T06:32:53.872Z,2.13
2022-10-04T06:35:46.030Z,2.20
2022-10-04T06:38:50.057Z,2.15
2022-10-04T06:41:49.693Z,2.10
2022-10-04T06:44:36.867Z,2.03
2022-10-04T06:47:44.740Z,2.78
2022-10-04T06:50:48.674Z,2.22
2022-10-04T06:53:19.191Z,2.35
2022-10-04T06:56:03.073Z,2.15
2022-10-04T06:58:49.847Z,2.10
2022-10-04T07:01:39.427Z,1.60
2022-10-04T07:04:22.292Z,2.08
2022-10-04T07:07:22.830Z,1.63
2022-10-04T07:10:00.551Z,1.70
2022-10-04T07:12:37.016Z,1.40
2022-10-04T07:15:17.986Z,1.10
2022-10-04T07:17:48.324Z,1.90
2022-10-04T07:20:27.342Z,1.80
2022-10-04T07:23:07.247Z,1.80
2022-10-04T07:25:42.490Z,1.40
2022-10-04T07:31:08.792Z,2.03
2022-10-04T07:33:47.218Z,1.50
2022-10-04T07:36:22.174Z,1.27
2022-10-04T07:39:00.450Z,1.40
2022-10-04T07:41:35.875Z,1.23
2022-10-04T07:44:12.295Z,1.33
2022-10-04T07:47:17.200Z,1.10
2022-10-04T07:49:45.364Z,1.60
2022-10-04T07:52:24.522Z,1.65
2022-10-04T07:55:07.370Z,1.40
2022-10-04T07:58:09.665Z,1.38
2022-10-04T08:01:14.288Z,1.30
2022-10-04T08:04:06.788Z,0.73
2022-10-04T08:06:53.185Z,1.13
2022-10-04T08:09:35.313Z,1.38
2022-10-04T08:12:16.237Z,1.23
2022-10-04T08:15:28.485Z,0.90
2022-10-04T08:18:17.298Z,1.30
2022-10-04T08:20:53.924Z,0.93
2022-10-04T08:23:43.098Z,1.40
2022-10-04T08:26:46.047Z,1.40
2022-10-04T08:29:38.613Z,1.50
2022-10-04T08:32:27.842Z,1.30
2022-10-04T08:35:19.467Z,1.60
2022-10-04T08:41:56.197Z,1.42
2022-10-04T08:44:38.960Z,1.73
2022-10-04T08:47:46.791Z,1.40
2022-10-04T08:50:56.419Z,1.70
2022-10-04T08:53:47.898Z,1.40
2022-10-04T08:56:33.746Z,1.73
2022-10-04T08:59:12.115Z,1.75
2022-10-04T09:02:02.038Z,1.67
2022-10-04T09:05:07.002Z,1.60
2022-10-04T09:08:14.291Z,2.10
2022-10-04T09:10:54.728Z,1.48
2022-10-04T09:13:27.757Z,1.20
2022-10-04T09:16:09.929Z,1.20
2022-10-04T09:19:13.667Z,1.52
2022-10-04T09:21:48.600Z,1.50
2022-10-04T09:24:22.100Z,1.65
2022-10-04T09:27:26.844Z,1.70
2022-10-04T09:30:23.075Z,1.83
2022-10-04T09:33:04.401Z,1.13
2022-10-04T09:35:42.984Z,1.48
2022-10-04T09:38:42.613Z,1.20
2022-10-04T09:41:38.169Z,1.00
2022-10-04T09:44:28.586Z,1.27
2022-10-04T09:47:21.471Z,1.30
2022-10-04T09:50:19.106Z,1.20
2022-10-04T09:53:05.757Z,1.20
2022-10-04T09:56:04.949Z,1.25
2022-10-04T09:58:40.705Z,1.00
2022-10-04T10:01:33.685Z,0.60
2022-10-04T10:04:38.044Z,0.80
2022-10-04T10:07:14.736Z,0.90
2022-10-04T10:13:51.753Z,1.00
2022-10-04T10:16:44.206Z,0.82
2022-10-04T10:19:39.094Z,0.80
2022-10-04T10:22:28.218Z,0.90
2022-10-04T10:25:09.551Z,0.73
2022-10-04T10:28:11.767Z,0.70
2022-10-04T10:31:04.304Z,1.08
2022-10-04T10:34:03.957Z,1.05
2022-10-04T10:37:09.889Z,0.70
2022-10-04T10:39:46.145Z,0.80
2022-10-04T10:42:41.526Z,0.68
2022-10-04T10:45:35.644Z,0.80
2022-10-04T10:48:27.431Z,1.30
2022-10-04T10:51:20.558Z,0.60
2022-10-04T10:54:28.444Z,0.75
2022-10-04T10:57:15.015Z,1.17
2022-10-04T11:00:20.671Z,0.68
2022-10-04T11:03:14.646Z,0.60
2022-10-04T11:06:07.925Z,0.80
2022-10-04T11:09:13.002Z,0.80
2022-10-04T11:18:38.602Z,0.90
2022-10-04T11:21:18.022Z,0.68
2022-10-04T11:24:14.354Z,0.80
2022-10-04T11:30:26.579Z,0.90
2022-10-04T11:33:10.430Z,0.95
2022-10-04T11:36:02.301Z,0.98
2022-10-04T11:38:32.206Z,1.30
2022-10-04T11:41:39.994Z,1.00
2022-10-04T11:44:16.508Z,1.40
2022-10-04T11:47:08.409Z,1.50
2022-10-04T11:49:57.502Z,1.30
2022-10-04T11:53:00.727Z,1.25
2022-10-04T11:56:10.275Z,1.98
2022-10-04T11:58:49.344Z,1.27
2022-10-04T12:01:48.780Z,1.45
2022-10-04T12:05:02.342Z,1.30
2022-10-04T12:08:07.569Z,1.17
2022-10-04T12:10:42.599Z,1.35
2022-10-04T12:13:49.692Z,1.67
2022-10-04T12:16:31.742Z,1.73
2022-10-04T12:19:29.442Z,1.73
2022-10-04T12:22:40.634Z,1.92
2022-10-04T12:25:27.403Z,2.03
2022-10-04T12:28:43.674Z,1.70
2022-10-04T12:31:23.259Z,2.17
2022-10-04T12:34:20.919Z,1.75
2022-10-04T12:36:54.119Z,2.10
2022-10-04T12:40:04.736Z,2.60
2022-10-04T12:43:04.915Z,2.20
2022-10-04T12:46:02.456Z,2.17
2022-10-04T12:52:41.528Z,2.45
2022-10-04T12:55:49.135Z,1.98
2022-10-04T12:58:35.357Z,2.13
2022-10-04T13:01:53.742Z,1.90
2022-10-04T13:04:45.206Z,2.15
2022-10-04T13:07:43.658Z,1.70
2022-10-04T13:10:40.965Z,2.28
2022-10-04T13:13:17.848Z,1.77
2022-10-04T13:19:28.726Z,1.50
2022-10-04T13:22:07.288Z,1.83
2022-10-04T13:28:22.778Z,1.40
2022-10-04T13:31:22.808Z,1.40
2022-10-04T13:33:58.333Z,1.50
2022-10-04T13:36:56.955Z,1.63
2022-10-04T13:39:44.465Z,0.93
2022-10-04T13:42:23.187Z,0.90
2022-10-04T13:45:22.962Z,0.88
2022-10-04T13:48:42.025Z,1.20
2022-10-04T13:51:42.952Z,1.08
2022-10-04T13:55:04.074Z,1.52
2022-10-04T13:57:50.386Z,1.58
2022-10-04T14:00:51.591Z,1.10
2022-10-04T14:07:00.133Z,0.90
2022-10-04T14:10:02.147Z,0.80
2022-10-04T14:13:05.477Z,1.00
2022-10-04T14:16:06.639Z,1.10
2022-10-04T14:18:58.797Z,0.82
2022-10-04T14:21:34.812Z,1.02
2022-10-04T14:24:44.341Z,1.15
2022-10-04T14:27:31.835Z,1.05
2022-10-04T14:33:55.522Z,0.93
2022-10-04T14:36:55.932Z,0.90
2022-10-04T14:39:23.277Z,1.05
2022-10-04T14:42:21.852Z,1.20
2022-10-04T14:45:01.895Z,1.10
2022-10-04T14:48:00.420Z,0.80
2022-10-04T14:51:00.059Z,0.90
2022-10-04T14:53:53.981Z,1.00
2022-10-04T14:56:53.738Z,1.23
2022-10-04T14:59:48.295Z,0.82
2022-10-04T15:02:31.857Z,0.80
2022-10-04T15:05:38.657Z,0.90
2022-10-04T15:11:07.834Z,1.20
2022-10-04T15:17:08.971Z,1.08
2022-10-04T15:20:11.076Z,1.30
2022-10-04T15:22:56.855Z,1.20
2022-10-04T15:32:24.597Z,1.00
2022-10-04T15:35:42.686Z,1.30
2022-10-04T15:38:53.178Z,1.23
2022-10-04T15:41:35.564Z,1.50
2022-10-04T15:44:19.421Z,1.25
2022-10-04T15:47:07.355Z,1.20
2022-10-04T15:49:37.443Z,1.27
2022-10-04T15:52:29.614Z,1.23
2022-10-04T15:55:26.010Z,1.25
2022-10-04T15:58:12.606Z,1.33
2022-10-04T16:01:08.325Z,2.30
2022-10-04T16:04:11.691Z,1.23
2022-10-04T16:07:04.408Z,1.30
2022-10-04T16:10:16.220Z,1.38
2022-10-04T16:16:49.773Z,2.22
2022-10-04T16:22:18.973Z,1.80
2022-10-04T16:24:53.998Z,3.53
2022-10-04T16:30:40.347Z,3.90
2022-10-04T16:33:33.230Z,3.47
2022-10-04T16:36:49.887Z,2.88
2022-10-04T16:39:59.003Z,3.30
2022-10-04T16:42:34.695Z,3.08
2022-10-04T16:47:34.677Z,2.63
2022-10-04T16:50:04.996Z,3.45
2022-10-04T16:52:49.568Z,3.08
2022-10-04T16:55:36.709Z,3.03
2022-10-04T16:58:26.447Z,2.67
2022-10-04T17:01:26.014Z,3.85
2022-10-04T17:04:06.275Z,3.72
2022-10-04T17:07:21.531Z,3.80
2022-10-04T17:10:07.300Z,4.68
2022-10-04T17:12:59.167Z,3.67
2022-10-04T17:15:48.304Z,3.40
2022-10-04T17:21:46.291Z,3.97
2022-10-04T17:24:40.327Z,4.38
2022-10-04T17:27:30.211Z,4.85
2022-10-04T17:33:21.957Z,4.53
2022-10-04T17:36:07.637Z,4.32
2022-10-04T17:38:54.257Z,2.97
2022-10-04T17:42:34.328Z,5.00
2022-10-04T17:45:50.991Z,4.22
2022-10-04T17:49:04.001Z,3.60
2022-10-04T17:52:03.906Z,2.80
2022-10-04T17:54:55.565Z,1.88
2022-10-04T17:57:46.719Z,3.45
2022-10-04T18:00:19.498Z,2.30
2022-10-04T18:02:59.989Z,1.90
2022-10-04T18:05:33.535Z,2.30
2022-10-04T18:08:11.172Z,2.38
2022-10-04T18:11:01.939Z,1.00
2022-10-04T18:13:50.900Z,1.67
2022-10-04T18:16:55.893Z,1.20
2022-10-04T18:19:44.161Z,0.93
2022-10-04T18:22:21.938Z,1.35
2022-10-04T18:25:12.606Z,1.50
2022-10-04T18:28:12.573Z,2.33
2022-10-04T18:30:51.495Z,1.13
2022-10-04T18:39:24.699Z,2.67
2022-10-04T18:42:17.288Z,2.55
2022-10-04T18:45:27.810Z,3.15
2022-10-04T18:48:43.236Z,4.85
2022-10-04T18:52:13.878Z,7.53
2022-10-04T18:55:19.801Z,10.55
2022-10-04T18:58:23.138Z,7.35
2022-10-04T19:01:49.867Z,6.20
2022-10-04T19:04:45.951Z,4.07
2022-10-04T19:07:16.948Z,3.33
2022-10-04T19:10:15.475Z,3.55
2022-10-04T19:13:03.454Z,2.70
2022-10-04T19:16:09.319Z,1.92
2022-10-04T19:18:51.461Z,2.33
2022-10-04T19:21:33.307Z,2.10
2022-10-04T19:24:19.192Z,1.50
2022-10-04T19:27:14.536Z,1.10
2022-10-04T19:29:51.309Z,1.90
2022-10-04T19:32:52.149Z,1.88
2022-10-04T19:35:29.074Z,1.40
2022-10-04T19:38:41.540Z,1.38
2022-10-04T19:41:43.478Z,2.60
2022-10-04T19:44:46.626Z,1.98
2022-10-04T19:47:35.348Z,2.22
2022-10-04T19:50:39.844Z,1.50
2022-10-04T19:53:28.456Z,1.73
2022-10-04T19:58:43.666Z,1.90
2022-10-04T20:01:23.615Z,1.52
2022-10-04T20:04:13.344Z,1.60
2022-10-04T20:06:59.490Z,1.80
2022-10-04T20:09:54.877Z,1.60
2022-10-04T20:12:43.580Z,1.73
2022-10-04T20:15:17.915Z,3.75
2022-10-04T20:17:49.072Z,2.53
2022-10-04T20:20:54.686Z,2.20
2022-10-04T20:23:43.423Z,2.47
2022-10-04T20:26:56.003Z,1.50
2022-10-04T20:29:39.257Z,2.10
2022-10-04T20:32:36.413Z,2.42
2022-10-04T20:35:06.537Z,3.15
2022-10-04T20:38:02.943Z,2.45
2022-10-04T20:40:39.490Z,1.75
2022-10-04T20:43:17.192Z,1.45
2022-10-04T20:45:48.098Z,1.65
2022-10-04T20:48:24.264Z,1.65
2022-10-04T20:50:53.684Z,1.50
2022-10-04T20:53:23.057Z,1.48
2022-10-04T20:55:54.152Z,1.30
2022-10-04T20:58:32.644Z,1.60
2022-10-04T21:01:20.889Z,1.40
2022-10-04T21:03:48.249Z,1.55
2022-10-04T21:06:16.886Z,1.92
2022-10-04T21:08:44.377Z,1.40
2022-10-04T21:11:20.419Z,1.73
2022-10-04T21:14:01.012Z,1.10
2022-10-04T21:16:48.058Z,1.17
2022-10-04T21:19:38.908Z,1.50
2022-10-04T21:22:16.535Z,1.00
2022-10-04T21:24:49.720Z,1.00
2022-10-04T21:27:33.170Z,3.30
2022-10-04T21:30:02.576Z,3.42
2022-10-04T21:32:35.027Z,3.85
2022-10-04T21:35:04.586Z,4.75
2022-10-04T21:37:55.513Z,5.03
2022-10-04T21:40:22.491Z,4.13
2022-10-04T21:42:50.931Z,4.90
2022-10-04T21:45:17.997Z,4.30
2022-10-04T21:47:44.985Z,4.13
2022-10-04T21:50:12.280Z,3.63
2022-10-04T21:52:40.048Z,3.00
2022-10-04T21:55:10.737Z,2.75
2022-10-04T21:57:38.126Z,4.50
2022-10-04T22:00:06.713Z,4.93
2022-10-04T22:02:34.131Z,4.88
2022-10-04T22:05:02.439Z,4.82
2022-10-04T22:07:29.767Z,2.78
2022-10-04T22:10:04.923Z,2.67
2022-10-04T22:12:32.143Z,1.33
2022-10-04T22:14:59.229Z,1.50
2022-10-04T22:17:26.367Z,1.20
2022-10-04T22:19:56.712Z,1.30
2022-10-04T22:22:23.854Z,1.20
2022-10-04T22:24:51.071Z,1.30
2022-10-04T22:27:20.552Z,1.23
2022-10-04T22:29:48.371Z,1.23
2022-10-04T22:32:24.838Z,1.45
2022-10-04T22:34:58.019Z,1.33
2022-10-04T22:37:25.413Z,1.15
2022-10-04T22:39:53.078Z,1.00
2022-10-04T22:42:22.482Z,1.20
2022-10-04T22:44:49.732Z,0.93
2022-10-04T22:47:16.945Z,1.10
2022-10-04T22:49:48.101Z,1.30
2022-10-04T22:52:22.201Z,1.20
2022-10-04T22:54:52.337Z,1.40
2022-10-04T22:57:20.407Z,1.50
2022-10-04T22:59:50.542Z,1.08
2022-10-04T23:02:26.850Z,1.40
2022-10-04T23:04:58.076Z,1.80
2022-10-04T23:07:26.063Z,1.50
2022-10-04T23:09:55.077Z,1.67
2022-10-04T23:12:22.371Z,2.17
2022-10-04T23:14:49.757Z,1.45
2022-10-04T23:17:26.413Z,1.45
2022-10-04T23:20:09.352Z,1.60
2022-10-04T23:22:36.328Z,1.42
2022-10-04T23:25:16.565Z,1.63
2022-10-04T23:27:44.756Z,1.40
2022-10-04T23:30:15.840Z,1.70
2022-10-04T23:32:45.084Z,1.73
2022-10-04T23:35:30.064Z,1.30
2022-10-04T23:37:57.418Z,1.85
2022-10-04T23:40:25.929Z,1.58
2022-10-04T23:42:56.680Z,1.42
2022-10-04T23:45:25.656Z,1.52
2022-10-04T23:47:56.402Z,1.13
2022-10-04T23:50:33.077Z,1.40
2022-10-04T23:53:04.751Z,2.10
2022-10-04T23:55:42.625Z,1.50
2022-10-04T23:58:20.561Z,1.45
